createdAt,value
2019-01-23T00:00:49.212Z,98412.23
2019-01-23T00:03:15.112Z,98417.53
2019-01-23T00:05:40.981Z,98411.86
2019-01-23T00:08:06.897Z,98411.27
2019-01-23T00:10:32.821Z,98414.94
2019-01-23T00:12:58.702Z,98413.56
2019-01-23T00:15:24.563Z,98410.09
2019-01-23T00:17:50.446Z,98407.52
2019-01-23T00:20:16.362Z,98404.68
2019-01-23T00:22:42.221Z,98404.27
2019-01-23T00:25:12.160Z,98407.36
2019-01-23T00:27:38.053Z,98409.12
2019-01-23T00:30:09.851Z,98405.31
2019-01-23T00:32:35.774Z,98401.83
2019-01-23T00:35:01.636Z,98401.77
2019-01-23T00:37:27.501Z,98394.01
2019-01-23T00:39:53.422Z,98392.31
2019-01-23T00:42:19.313Z,98391.48
2019-01-23T00:44:45.167Z,98386.75
2019-01-23T00:47:11.038Z,98383.64
2019-01-23T00:49:37.075Z,98385.39
2019-01-23T00:52:03.058Z,98384.09
2019-01-23T00:54:29.029Z,98385.46
2019-01-23T00:56:54.929Z,98376.17
2019-01-23T00:59:20.828Z,98384.52
2019-01-23T01:01:46.727Z,98382.50
2019-01-23T01:04:12.593Z,98378.96
2019-01-23T01:06:38.488Z,98379.06
2019-01-23T01:09:07.001Z,98372.52
2019-01-23T01:11:32.874Z,98372.41
2019-01-23T01:13:58.758Z,98370.74
2019-01-23T01:16:24.674Z,98371.92
2019-01-23T01:18:50.528Z,98372.41
2019-01-23T01:21:16.524Z,98372.85
2019-01-23T01:23:42.448Z,98368.11
2019-01-23T01:26:08.504Z,98364.24
2019-01-23T01:28:34.389Z,98360.88
2019-01-23T01:31:00.331Z,98356.17
2019-01-23T01:33:26.211Z,98363.05
2019-01-23T01:35:52.078Z,98355.70
2019-01-23T01:38:17.959Z,98361.27
2019-01-23T01:40:43.965Z,98357.73
2019-01-23T01:43:09.877Z,98357.63
2019-01-23T01:45:35.733Z,98350.35
2019-01-23T01:48:01.689Z,98345.10
2019-01-23T01:50:27.573Z,98348.70
2019-01-23T01:52:53.438Z,98347.41
2019-01-23T01:55:19.306Z,98337.02
2019-01-23T01:57:45.323Z,98330.54
2019-01-23T02:00:19.298Z,98334.31
2019-01-23T02:02:45.184Z,98333.59
2019-01-23T02:05:11.053Z,98325.44
2019-01-23T02:07:36.948Z,98321.55
2019-01-23T02:10:06.485Z,98318.14
2019-01-23T02:12:32.368Z,98319.42
2019-01-23T02:14:58.218Z,98312.93
2019-01-23T02:17:24.458Z,98311.24
2019-01-23T02:19:50.353Z,98315.06
2019-01-23T02:22:16.233Z,98302.97
2019-01-23T02:24:42.128Z,98295.06
2019-01-23T02:27:08.065Z,98296.47
2019-01-23T02:29:33.950Z,98295.59
2019-01-23T02:31:59.877Z,98283.06
2019-01-23T02:34:25.744Z,98277.45
2019-01-23T02:36:51.768Z,98276.06
2019-01-23T02:39:17.691Z,98266.50
2019-01-23T02:41:43.563Z,98259.45
2019-01-23T02:44:09.478Z,98259.89
2019-01-23T02:46:35.471Z,98255.87
2019-01-23T02:49:01.385Z,98260.94
2019-01-23T02:51:27.313Z,98263.89
2019-01-23T02:53:53.139Z,98260.70
2019-01-23T02:56:19.039Z,98249.09
2019-01-23T02:58:44.933Z,98243.80
2019-01-23T03:01:10.797Z,98243.86
2019-01-23T03:03:36.774Z,98239.02
2019-01-23T03:06:02.743Z,98237.22
2019-01-23T03:08:28.604Z,98232.77
2019-01-23T03:10:54.651Z,98232.97
2019-01-23T03:13:20.632Z,98229.34
2019-01-23T03:15:46.531Z,98230.06
2019-01-23T03:18:12.434Z,98223.61
2019-01-23T03:20:38.334Z,98224.05
2019-01-23T03:23:04.198Z,98222.10
2019-01-23T03:25:30.216Z,98219.97
2019-01-23T03:27:59.739Z,98220.33
2019-01-23T03:30:25.764Z,98221.80
2019-01-23T03:32:51.647Z,98211.72
2019-01-23T03:35:17.560Z,98215.11
2019-01-23T03:37:43.444Z,98212.35
2019-01-23T03:40:15.138Z,98210.16
2019-01-23T03:42:41.029Z,98210.19
2019-01-23T03:45:09.195Z,98199.70
2019-01-23T03:47:35.116Z,98205.66
2019-01-23T03:50:01.129Z,98200.05
2019-01-23T03:52:27.057Z,98198.09
2019-01-23T03:54:53.138Z,98198.99
2019-01-23T03:57:19.188Z,98198.12
2019-01-23T03:59:45.165Z,98194.31
2019-01-23T04:02:11.055Z,98191.00
2019-01-23T04:04:36.954Z,98194.31
2019-01-23T04:07:02.881Z,98195.14
2019-01-23T04:09:28.744Z,98194.40
2019-01-23T04:11:54.630Z,98192.93
2019-01-23T04:14:20.536Z,98198.94
2019-01-23T04:16:46.414Z,98192.58
2019-01-23T04:19:12.325Z,98186.74
2019-01-23T04:21:38.207Z,98189.84
2019-01-23T04:24:04.075Z,98189.52
2019-01-23T04:26:30.093Z,98184.59
2019-01-23T04:28:56.106Z,98176.78
2019-01-23T04:31:21.972Z,98180.78
2019-01-23T04:33:47.848Z,98179.39
2019-01-23T04:36:13.731Z,98175.08
2019-01-23T04:38:39.722Z,98172.43
2019-01-23T04:41:05.636Z,98175.98
2019-01-23T04:43:31.594Z,98175.98
2019-01-23T04:45:57.456Z,98177.85
2019-01-23T04:48:23.335Z,98172.73
2019-01-23T04:51:00.318Z,98170.78
2019-01-23T04:53:36.879Z,98179.91
2019-01-23T04:56:02.966Z,98172.15
2019-01-23T04:58:28.870Z,98169.08
2019-01-23T05:00:54.774Z,98169.50
2019-01-23T05:03:20.656Z,98165.42
2019-01-23T05:05:46.523Z,98153.56
2019-01-23T05:08:12.404Z,98159.78
2019-01-23T05:10:38.416Z,98167.52
2019-01-23T05:13:04.390Z,98162.68
2019-01-23T05:15:30.242Z,98160.84
2019-01-23T05:17:56.124Z,98157.40
2019-01-23T05:20:22.224Z,98156.94
2019-01-23T05:22:48.204Z,98156.67
2019-01-23T05:25:14.177Z,98156.13
2019-01-23T05:27:40.316Z,98152.85
2019-01-23T05:30:18.830Z,98155.00
2019-01-23T05:32:44.743Z,98151.71
2019-01-23T05:35:10.606Z,98152.24
2019-01-23T05:37:36.573Z,98154.81
2019-01-23T05:40:05.712Z,98149.91
2019-01-23T05:42:31.651Z,98153.38
2019-01-23T05:44:57.508Z,98153.84
2019-01-23T05:47:23.380Z,98146.05
2019-01-23T05:49:49.369Z,98148.97
2019-01-23T05:52:15.241Z,98149.23
2019-01-23T05:54:41.112Z,98147.28
2019-01-23T05:57:07.002Z,98145.55
2019-01-23T05:59:32.954Z,98150.13
2019-01-23T06:01:58.986Z,98145.80
2019-01-23T06:04:24.847Z,98142.58
2019-01-23T06:06:50.736Z,98141.39
2019-01-23T06:09:16.640Z,98137.17
2019-01-23T06:11:42.529Z,98135.87
2019-01-23T06:14:08.377Z,98134.88
2019-01-23T06:16:34.274Z,98133.03
2019-01-23T06:19:00.184Z,98131.66
2019-01-23T06:21:26.062Z,98134.30
2019-01-23T06:23:52.049Z,98127.66
2019-01-23T06:26:17.958Z,98128.37
2019-01-23T06:28:43.821Z,98125.42
2019-01-23T06:31:13.558Z,98130.36
2019-01-23T06:33:39.530Z,98124.13
2019-01-23T06:36:05.466Z,98134.06
2019-01-23T06:38:31.369Z,98130.52
2019-01-23T06:40:57.317Z,98122.48
2019-01-23T06:43:23.321Z,98120.34
2019-01-23T06:45:49.308Z,98121.67
2019-01-23T06:48:15.230Z,98126.06
2019-01-23T06:50:41.116Z,98125.63
2019-01-23T06:53:13.808Z,98135.64
2019-01-23T06:55:35.170Z,98129.67
2019-01-23T06:58:01.024Z,98130.55
2019-01-23T07:00:26.959Z,98134.42
2019-01-23T07:02:53.023Z,98135.37
2019-01-23T07:05:19.231Z,98131.03
2019-01-23T07:07:45.188Z,98133.27
2019-01-23T07:10:15.219Z,98133.18
2019-01-23T07:12:41.163Z,98129.24
2019-01-23T07:15:09.468Z,98138.39
2019-01-23T07:17:35.406Z,98134.27
2019-01-23T07:20:01.331Z,98127.45
2019-01-23T07:22:27.219Z,98126.19
2019-01-23T07:24:53.208Z,98126.66
2019-01-23T07:27:19.222Z,98124.92
2019-01-23T07:29:45.114Z,98124.20
2019-01-23T07:32:11.196Z,98130.75
2019-01-23T07:34:37.230Z,98129.21
2019-01-23T07:37:03.112Z,98127.72
2019-01-23T07:39:28.978Z,98125.67
2019-01-23T07:41:54.852Z,98119.77
2019-01-23T07:44:20.718Z,98117.39
2019-01-23T07:46:46.604Z,98122.02
2019-01-23T07:49:12.566Z,98123.32
2019-01-23T07:51:38.431Z,98122.38
2019-01-23T07:54:04.372Z,98122.77
2019-01-23T07:56:30.233Z,98125.19
2019-01-23T07:58:57.996Z,98115.89
2019-01-23T08:01:27.747Z,98121.11
2019-01-23T08:03:53.606Z,98114.39
2019-01-23T08:06:19.466Z,98120.75
2019-01-23T08:08:45.385Z,98121.55
2019-01-23T08:11:11.258Z,98118.48
2019-01-23T08:13:37.107Z,98117.45
2019-01-23T08:16:03.027Z,98115.00
2019-01-23T08:18:28.911Z,98111.51
2019-01-23T08:20:54.762Z,98118.23
2019-01-23T08:23:20.684Z,98105.72
2019-01-23T08:25:46.603Z,98114.51
2019-01-23T08:28:12.454Z,98110.53
2019-01-23T08:30:40.749Z,98118.06
2019-01-23T08:33:10.028Z,98114.12
2019-01-23T08:35:35.882Z,98120.41
2019-01-23T08:38:01.857Z,98112.51
2019-01-23T08:40:27.743Z,98108.52
2019-01-23T08:42:53.616Z,98111.98
2019-01-23T08:45:19.623Z,98107.95
2019-01-23T08:47:45.488Z,98098.54
2019-01-23T08:50:29.955Z,98098.54
2019-01-23T08:52:55.871Z,98101.48
2019-01-23T08:55:22.938Z,98101.48
2019-01-23T08:57:49.167Z,98108.57
2019-01-23T09:00:16.033Z,98105.31
2019-01-23T09:02:41.905Z,98109.28
2019-01-23T09:05:08.286Z,98105.52
2019-01-23T09:07:34.183Z,98105.19
2019-01-23T09:10:00.274Z,98086.59
2019-01-23T09:12:26.265Z,98099.73
2019-01-23T09:14:52.237Z,98099.73
2019-01-23T09:17:18.261Z,98095.02
2019-01-23T09:19:44.157Z,98093.55
2019-01-23T09:22:10.054Z,98093.44
2019-01-23T09:24:35.935Z,98089.21
2019-01-23T09:27:01.845Z,98082.90
2019-01-23T09:29:27.728Z,98085.38
2019-01-23T09:32:15.685Z,98076.20
2019-01-23T09:35:12.516Z,98078.53
2019-01-23T09:37:45.060Z,98066.11
2019-01-23T09:40:23.547Z,98058.66
2019-01-23T09:43:02.392Z,98068.33
2019-01-23T09:45:32.099Z,98062.09
2019-01-23T09:48:14.017Z,98064.28
2019-01-23T09:51:06.847Z,98068.47
2019-01-23T09:53:36.531Z,98064.70
2019-01-23T09:56:02.685Z,98065.13
2019-01-23T09:58:28.542Z,98062.36
2019-01-23T10:00:59.758Z,98056.62
2019-01-23T10:03:23.099Z,98055.38
2019-01-23T10:05:49.634Z,98051.63
2019-01-23T10:08:15.554Z,98039.73
2019-01-23T10:10:41.408Z,98041.05
2019-01-23T10:13:07.415Z,98032.81
2019-01-23T10:15:37.107Z,98032.30
2019-01-23T10:18:02.966Z,98034.50
2019-01-23T10:20:28.900Z,98037.23
2019-01-23T10:22:54.869Z,98027.08
2019-01-23T10:25:20.859Z,98023.34
2019-01-23T10:27:46.774Z,98022.52
2019-01-23T10:30:13.526Z,98016.50
2019-01-23T10:32:39.467Z,98012.27
2019-01-23T10:35:08.908Z,98009.66
2019-01-23T10:37:34.769Z,98002.05
2019-01-23T10:40:00.669Z,98000.12
2019-01-23T10:42:26.553Z,97997.95
2019-01-23T10:44:52.436Z,97997.55
2019-01-23T10:47:18.316Z,97995.02
2019-01-23T10:49:44.186Z,97991.77
2019-01-23T10:52:10.075Z,97994.97
2019-01-23T10:54:35.987Z,97994.69
2019-01-23T10:57:01.870Z,97994.39
2019-01-23T10:59:27.734Z,97992.38
2019-01-23T11:01:53.871Z,97990.55
2019-01-23T11:04:19.984Z,97991.26
2019-01-23T11:06:45.900Z,97992.54
2019-01-23T11:09:11.831Z,97989.67
2019-01-23T11:11:37.785Z,97985.00
2019-01-23T11:14:03.664Z,97981.66
2019-01-23T11:16:29.548Z,97975.23
2019-01-23T11:18:55.420Z,97973.09
2019-01-23T11:21:21.355Z,97963.61
2019-01-23T11:23:47.249Z,97963.31
2019-01-23T11:26:13.150Z,97966.87
2019-01-23T11:28:38.978Z,97960.47
2019-01-23T11:31:04.849Z,97959.02
2019-01-23T11:33:30.748Z,97962.84
2019-01-23T11:35:56.643Z,97964.05
2019-01-23T11:38:22.592Z,97956.95
2019-01-23T11:40:48.449Z,97955.64
2019-01-23T11:43:14.328Z,97947.34
2019-01-23T11:45:40.208Z,97944.95
2019-01-23T11:48:06.124Z,97945.67
2019-01-23T11:50:31.984Z,97942.14
2019-01-23T11:52:57.833Z,97940.44
2019-01-23T11:55:23.775Z,97934.89
2019-01-23T11:57:49.644Z,97928.18
2019-01-23T12:00:19.329Z,97928.61
2019-01-23T12:02:45.250Z,97922.26
2019-01-23T12:05:13.241Z,97916.13
2019-01-23T12:07:39.106Z,97913.48
2019-01-23T12:10:08.804Z,97909.30
2019-01-23T12:12:34.678Z,97899.72
2019-01-23T12:15:00.608Z,97898.34
2019-01-23T12:17:26.564Z,97891.66
2019-01-23T12:19:52.433Z,97887.29
2019-01-23T12:22:18.321Z,97881.22
2019-01-23T12:24:44.229Z,97878.45
2019-01-23T12:27:10.183Z,97876.79
2019-01-23T12:29:36.037Z,97865.39
2019-01-23T12:32:01.908Z,97859.11
2019-01-23T12:34:27.792Z,97854.38
2019-01-23T12:36:53.684Z,97850.06
2019-01-23T12:39:23.708Z,97852.67
2019-01-23T12:41:49.572Z,97850.25
2019-01-23T12:44:15.456Z,97847.78
2019-01-23T12:46:41.393Z,97843.61
2019-01-23T12:49:07.319Z,97841.22
2019-01-23T12:51:33.234Z,97836.41
2019-01-23T12:53:59.135Z,97832.70
2019-01-23T12:56:25.001Z,97831.33
2019-01-23T12:58:50.998Z,97833.76
2019-01-23T13:01:16.946Z,97833.83
2019-01-23T13:03:42.905Z,97835.56
2019-01-23T13:06:08.829Z,97827.85
2019-01-23T13:08:34.830Z,97825.00
2019-01-23T13:11:00.717Z,97819.34
2019-01-23T13:13:26.661Z,97822.14
2019-01-23T13:15:52.527Z,97816.33
2019-01-23T13:18:18.516Z,97815.32
2019-01-23T13:20:44.396Z,97819.20
2019-01-23T13:23:10.305Z,97811.80
2019-01-23T13:25:36.205Z,97818.13
2019-01-23T13:28:02.199Z,97817.86
2019-01-23T13:30:28.090Z,97814.38
2019-01-23T13:32:53.952Z,97805.34
2019-01-23T13:35:32.061Z,97808.26
2019-01-23T13:37:58.332Z,97800.84
2019-01-23T13:40:30.556Z,97803.78
2019-01-23T13:42:56.515Z,97806.48
2019-01-23T13:45:22.372Z,97804.42
2019-01-23T13:47:48.251Z,97805.54
2019-01-23T13:50:14.256Z,97805.03
2019-01-23T13:52:40.105Z,97800.82
2019-01-23T13:55:09.384Z,97792.60
2019-01-23T13:57:35.334Z,97799.34
2019-01-23T14:00:02.113Z,97795.90
2019-01-23T14:02:27.971Z,97795.62
2019-01-23T14:04:53.916Z,97803.08
2019-01-23T14:07:19.794Z,97801.28
2019-01-23T14:09:45.635Z,97802.09
2019-01-23T14:12:11.566Z,97795.02
2019-01-23T14:14:37.516Z,97797.45
2019-01-23T14:17:03.373Z,97799.06
2019-01-23T14:19:29.248Z,97798.48
2019-01-23T14:21:55.338Z,97801.58
2019-01-23T14:24:21.494Z,97795.61
2019-01-23T14:26:47.357Z,97793.59
2019-01-23T14:29:13.228Z,97797.39
2019-01-23T14:31:39.129Z,97793.22
2019-01-23T14:34:05.228Z,97792.81
2019-01-23T14:36:31.102Z,97791.37
2019-01-23T14:38:56.963Z,97793.66
2019-01-23T14:41:22.963Z,97791.19
2019-01-23T14:43:48.819Z,97783.70
2019-01-23T14:46:14.703Z,97789.67
2019-01-23T14:48:40.589Z,97791.52
2019-01-23T14:51:06.459Z,97787.52
2019-01-23T14:53:32.369Z,97787.91
2019-01-23T14:55:58.237Z,97786.20
2019-01-23T14:58:24.100Z,97793.06
2019-01-23T15:00:50.030Z,97791.05
2019-01-23T15:03:15.927Z,97791.40
2019-01-23T15:05:41.782Z,97791.48
2019-01-23T15:08:07.737Z,97789.59
2019-01-23T15:10:33.587Z,97784.94
2019-01-23T15:12:59.449Z,97784.83
2019-01-23T15:15:25.350Z,97787.23
2019-01-23T15:17:51.997Z,97790.18
2019-01-23T15:20:22.965Z,97786.98
2019-01-23T15:22:48.869Z,97795.00
2019-01-23T15:25:14.747Z,97791.86
2019-01-23T15:27:40.604Z,97794.86
2019-01-23T15:30:10.346Z,97790.98
2019-01-23T15:32:36.232Z,97789.98
2019-01-23T15:35:04.625Z,97794.80
2019-01-23T15:37:30.512Z,97794.84
2019-01-23T15:39:56.469Z,97787.98
2019-01-23T15:42:26.303Z,97794.52
2019-01-23T15:44:52.185Z,97789.72
2019-01-23T15:47:18.129Z,97788.98
2019-01-23T15:49:44.027Z,97788.70
2019-01-23T15:52:09.965Z,97787.08
2019-01-23T15:54:36.012Z,97786.15
2019-01-23T15:57:01.868Z,97789.25
2019-01-23T15:59:27.741Z,97788.84
2019-01-23T16:01:53.732Z,97794.59
2019-01-23T16:04:19.654Z,97790.84
2019-01-23T16:06:45.663Z,97787.66
2019-01-23T16:09:11.568Z,97795.84
2019-01-23T16:11:37.583Z,97795.84
2019-01-23T16:14:03.528Z,97794.78
2019-01-23T16:16:29.460Z,97792.66
2019-01-23T16:18:55.383Z,97791.41
2019-01-23T16:21:21.388Z,97794.44
2019-01-23T16:23:47.270Z,97792.14
2019-01-23T16:26:13.306Z,97779.70
2019-01-23T16:28:39.236Z,97788.83
2019-01-23T16:31:05.110Z,97788.83
2019-01-23T16:33:30.988Z,97791.14
2019-01-23T16:35:56.978Z,97790.35
2019-01-23T16:38:22.883Z,97788.41
2019-01-23T16:40:48.814Z,97787.73
2019-01-23T16:43:14.705Z,97790.92
2019-01-23T16:45:40.588Z,97774.40
2019-01-23T16:48:06.485Z,97774.40
2019-01-23T16:50:32.364Z,97787.14
2019-01-23T16:52:58.247Z,97790.17
2019-01-23T16:55:24.137Z,97784.61
2019-01-23T16:57:50.576Z,97785.92
2019-01-23T17:00:18.633Z,97790.69
2019-01-23T17:02:44.503Z,97781.91
2019-01-23T17:05:19.221Z,97783.83
2019-01-23T17:07:45.113Z,97782.80
2019-01-23T17:10:16.459Z,97790.87
2019-01-23T17:12:42.447Z,97793.05
2019-01-23T17:15:09.650Z,97753.87
2019-01-23T17:17:35.510Z,97784.58
2019-01-23T17:20:01.416Z,97796.89
2019-01-23T17:22:27.292Z,97788.11
2019-01-23T17:24:53.165Z,97788.86
2019-01-23T17:27:19.093Z,97790.73
2019-01-23T17:29:44.968Z,97790.82
2019-01-23T17:32:10.934Z,97789.05
2019-01-23T17:34:36.860Z,97791.19
2019-01-23T17:37:02.751Z,97793.44
2019-01-23T17:39:28.648Z,97791.43
2019-01-23T17:41:54.918Z,97789.04
2019-01-23T17:44:20.890Z,97787.54
2019-01-23T17:46:47.075Z,97787.46
2019-01-23T17:49:13.311Z,97787.81
2019-01-23T17:51:39.652Z,97787.54
2019-01-23T17:54:05.513Z,97788.97
2019-01-23T17:56:31.377Z,97792.59
2019-01-23T17:58:57.473Z,97795.49
2019-01-23T18:01:23.450Z,97791.58
2019-01-23T18:03:49.308Z,97800.63
2019-01-23T18:06:15.247Z,97801.65
2019-01-23T18:08:41.225Z,97804.14
2019-01-23T18:11:07.107Z,97803.34
2019-01-23T18:13:32.984Z,97808.27
2019-01-23T18:16:00.972Z,97804.94
2019-01-23T18:18:26.851Z,97804.14
2019-01-23T18:20:52.725Z,97809.28
2019-01-23T18:23:18.651Z,97809.28
2019-01-23T18:25:44.548Z,97813.28
2019-01-23T18:28:10.467Z,97817.70
2019-01-23T18:30:46.174Z,97819.25
2019-01-23T18:33:15.868Z,97816.09
2019-01-23T18:36:00.837Z,97821.94
2019-01-23T18:38:39.405Z,97822.74
2019-01-23T18:41:18.196Z,97824.85
2019-01-23T18:43:56.869Z,97828.44
2019-01-23T18:46:58.943Z,97836.20
2019-01-23T18:49:51.671Z,97837.30
2019-01-23T18:52:17.692Z,97838.19
2019-01-23T18:54:43.614Z,97850.47
2019-01-23T18:57:21.940Z,97852.67
2019-01-23T18:59:47.798Z,97854.27
2019-01-23T19:02:13.660Z,97857.06
2019-01-23T19:04:39.637Z,97859.17
2019-01-23T19:07:05.495Z,97859.83
2019-01-23T19:09:31.604Z,97859.15
2019-01-23T19:11:57.469Z,97861.30
2019-01-23T19:14:24.606Z,97866.02
2019-01-23T19:16:50.636Z,97872.52
2019-01-23T19:19:16.644Z,97872.32
2019-01-23T19:21:42.492Z,97864.73
2019-01-23T19:24:08.365Z,97871.64
2019-01-23T19:26:34.341Z,97877.05
2019-01-23T19:29:00.245Z,97873.02
2019-01-23T19:31:26.255Z,97874.21
2019-01-23T19:33:52.256Z,97876.44
2019-01-23T19:36:18.218Z,97873.94
2019-01-23T19:38:44.965Z,97882.27
2019-01-23T19:41:10.896Z,97882.66
2019-01-23T19:43:36.822Z,97874.86
2019-01-23T19:46:02.705Z,97881.70
2019-01-23T19:48:31.475Z,97889.44
2019-01-23T19:50:57.417Z,97883.76
2019-01-23T19:53:23.314Z,97889.48
2019-01-23T19:55:49.204Z,97890.83
2019-01-23T19:58:15.184Z,97893.35
2019-01-23T20:00:41.105Z,97893.35
2019-01-23T20:03:07.073Z,97899.65
2019-01-23T20:05:34.505Z,97902.67
2019-01-23T20:08:00.454Z,97906.20
2019-01-23T20:10:26.380Z,97910.96
2019-01-23T20:12:52.828Z,97913.95
2019-01-23T20:15:20.156Z,97916.88
2019-01-23T20:17:48.016Z,97915.02
2019-01-23T20:20:14.561Z,97912.73
2019-01-23T20:22:40.629Z,97913.66
2019-01-23T20:25:09.909Z,97914.75
2019-01-23T20:27:35.912Z,97910.85
2019-01-23T20:30:04.113Z,97913.11
2019-01-23T20:32:30.022Z,97915.34
2019-01-23T20:34:55.917Z,97911.54
2019-01-23T20:37:24.952Z,97911.62
2019-01-23T20:39:50.838Z,97907.58
2019-01-23T20:42:16.735Z,97913.11
2019-01-23T20:44:42.756Z,97916.11
2019-01-23T20:47:08.678Z,97924.81
2019-01-23T20:49:34.575Z,97922.19
2019-01-23T20:52:00.485Z,97926.52
2019-01-23T20:54:26.361Z,97926.17
2019-01-23T20:56:52.305Z,97931.27
2019-01-23T20:59:18.192Z,97934.69
2019-01-23T21:01:44.155Z,97932.89
2019-01-23T21:04:10.062Z,97932.66
2019-01-23T21:06:35.955Z,97937.14
2019-01-23T21:09:02.191Z,97939.91
2019-01-23T21:11:28.043Z,97935.66
2019-01-23T21:13:53.911Z,97940.76
2019-01-23T21:16:19.785Z,97947.31
2019-01-23T21:18:45.667Z,97949.84
2019-01-23T21:21:11.745Z,97947.56
2019-01-23T21:23:37.622Z,97945.84
2019-01-23T21:26:03.484Z,97946.37
2019-01-23T21:28:29.411Z,97946.86
2019-01-23T21:30:55.318Z,97940.53
2019-01-23T21:33:21.182Z,97943.37
2019-01-23T21:35:47.094Z,97947.61
2019-01-23T21:38:12.939Z,97945.91
2019-01-23T21:40:39.223Z,97947.81
2019-01-23T21:43:05.150Z,97951.72
2019-01-23T21:45:31.000Z,97937.63
2019-01-23T21:47:57.836Z,97934.31
2019-01-23T21:50:27.359Z,97935.72
2019-01-23T21:52:53.220Z,97934.25
2019-01-23T21:55:20.872Z,97941.23
2019-01-23T21:57:46.737Z,97939.00
2019-01-23T22:00:30.744Z,97940.61
2019-01-23T22:02:58.589Z,97942.27
2019-01-23T22:05:24.493Z,97944.63
2019-01-23T22:07:50.361Z,97952.95
2019-01-23T22:10:16.230Z,97959.55
2019-01-23T22:12:42.224Z,97959.62
2019-01-23T22:15:16.908Z,97951.27
2019-01-23T22:17:42.805Z,97951.27
2019-01-23T22:20:17.131Z,97957.92
2019-01-23T22:22:43.007Z,97951.73
2019-01-23T22:25:10.573Z,97958.80
2019-01-23T22:27:36.456Z,97955.73
2019-01-23T22:30:05.852Z,97948.78
2019-01-23T22:32:31.913Z,97951.20
2019-01-23T22:34:57.776Z,97948.71
2019-01-23T22:37:23.665Z,97951.09
2019-01-23T22:39:49.568Z,97953.09
2019-01-23T22:42:15.483Z,97951.24
2019-01-23T22:44:41.391Z,97965.33
2019-01-23T22:47:07.274Z,97965.98
2019-01-23T22:49:33.110Z,97961.77
2019-01-23T22:51:59.067Z,97962.12
2019-01-23T22:54:24.966Z,97974.45
2019-01-23T22:56:50.836Z,97970.47
2019-01-23T22:59:16.717Z,97975.02
2019-01-23T23:01:42.759Z,97975.19
2019-01-23T23:04:08.643Z,97969.73
2019-01-23T23:06:34.507Z,97974.91
2019-01-23T23:09:00.878Z,97980.20
2019-01-23T23:11:26.800Z,97974.88
2019-01-23T23:13:52.802Z,97967.30
2019-01-23T23:16:18.769Z,97969.16
2019-01-23T23:18:44.652Z,97968.31
2019-01-23T23:21:10.585Z,97974.45
2019-01-23T23:23:36.465Z,97973.36
2019-01-23T23:26:02.322Z,97969.09
2019-01-23T23:28:28.240Z,97966.23
2019-01-23T23:30:54.240Z,97973.42
2019-01-23T23:33:20.144Z,97971.84
2019-01-23T23:35:46.059Z,97971.84
2019-01-23T23:38:11.940Z,97976.38
2019-01-23T23:40:37.778Z,97969.48
2019-01-23T23:43:03.700Z,97962.47
2019-01-23T23:45:29.673Z,97965.45
2019-01-23T23:47:55.553Z,97967.33
2019-01-23T23:50:21.451Z,97965.08
2019-01-23T23:52:50.647Z,97957.68
2019-01-23T23:55:16.507Z,97957.72
2019-01-23T23:57:42.490Z,97951.45
